Terminal Aerodrome Forecast
Issued by NWS

Home | Current Version | Previous Version | Text Only | Print | Product List | Glossary On
Versions: 1 2 3 4 5 6 7 8 9 10 11 12 13 14 15 16 17 18 19 20 21 22 23 24
000
FTAK31 PAFA 241120
TAFAMC
TAF
PAMC 241120Z 2412/2512 00000KT P6SM OVC080
     FM250000 00000KT P6SM -SHSN BKN025 OVC050
     FM250600 00000KT P6SM OVC025=

USA.gov is the U.S. government's official web portal to all federal, state and local government web resources and services.